NOZ1170 ENGM-BIKF
Flight info
| Callsign | NOZ1170 |
|---|---|
| Flight time | N/A |
| Altitude | 36000 |
| Route | EVTOG DCT BARUD/M078F360 DCT ING DCT NASBU NASBU2H |
| Aircraft | B738/M-SDE2E3FGHIRWXY/LB1 |
Departure
| Time | 2026-04-30 13:29 |
|---|---|
| Airport | Oslo-Gardermoen International Airport (ENGM) |
Arrival
| Time | N/A |
|---|---|
| Airport | Keflavik International Airport (BIKF) |
| Time | Latitude | Longitude | Altitude | Speed | Heading |
|---|---|---|---|---|---|
| 2026-04-30 13:05 | 60.19445 | 11.10354 | 688 ft | 0 kts | 196° |
| 2026-04-30 13:18 | 60.19459 | 11.10362 | 688 ft | 2 kts | 196° |
| 2026-04-30 13:18 | 60.19474 | 11.10370 | 688 ft | 2 kts | 196° |
| 2026-04-30 13:19 | 60.19488 | 11.10379 | 688 ft | 2 kts | 196° |
| 2026-04-30 13:19 | 60.19502 | 11.10387 | 688 ft | 2 kts | 196° |
| 2026-04-30 13:19 | 60.19510 | 11.10391 | 688 ft | 0 kts | 196° |
| 2026-04-30 13:22 | 60.19485 | 11.10436 | 688 ft | 9 kts | 91° |
| 2026-04-30 13:22 | 60.19539 | 11.10525 | 688 ft | 11 kts | 20° |
| 2026-04-30 13:22 | 60.19728 | 11.10633 | 688 ft | 16 kts | 16° |
| 2026-04-30 13:23 | 60.19844 | 11.10702 | 688 ft | 17 kts | 15° |
| 2026-04-30 13:23 | 60.19979 | 11.10488 | 688 ft | 17 kts | 284° |
| 2026-04-30 13:24 | 60.20050 | 11.09983 | 688 ft | 18 kts | 286° |
| 2026-04-30 13:24 | 60.20118 | 11.09511 | 688 ft | 16 kts | 286° |
| 2026-04-30 13:25 | 60.20178 | 11.09092 | 688 ft | 14 kts | 285° |
| 2026-04-30 13:25 | 60.20305 | 11.08977 | 688 ft | 11 kts | 17° |
| 2026-04-30 13:26 | 60.20553 | 11.09120 | 688 ft | 16 kts | 15° |
| 2026-04-30 13:26 | 60.20835 | 11.09284 | 688 ft | 25 kts | 15° |
| 2026-04-30 13:27 | 60.21174 | 11.09479 | 688 ft | 26 kts | 16° |
| 2026-04-30 13:28 | 60.21566 | 11.09377 | 688 ft | 21 kts | 285° |
| 2026-04-30 13:28 | 60.21419 | 11.09054 | 688 ft | 18 kts | 195° |
| 2026-04-30 13:28 | 60.21159 | 11.08906 | 688 ft | 70 kts | 195° |
| 2026-04-30 13:29 | 60.19474 | 11.07930 | 693 ft | 174 kts | 195° |
| 2026-04-30 13:29 | 60.17216 | 11.06520 | 1897 ft | 179 kts | 206° |
| 2026-04-30 13:30 | 60.15113 | 10.99863 | 3243 ft | 218 kts | 249° |
| 2026-04-30 13:31 | 60.13997 | 10.93731 | 4209 ft | 248 kts | 260° |
| 2026-04-30 13:31 | 60.13702 | 10.83019 | 6334 ft | 264 kts | 268° |
| 2026-04-30 13:32 | 60.13485 | 10.75673 | 7850 ft | 268 kts | 268° |
| 2026-04-30 13:32 | 60.13395 | 10.68160 | 9289 ft | 273 kts | 281° |
| 2026-04-30 13:33 | 60.15220 | 10.61717 | 10645 ft | 277 kts | 317° |
| 2026-04-30 13:33 | 60.18619 | 10.57372 | 11400 ft | 309 kts | 332° |
| 2026-04-30 13:34 | 60.20581 | 10.55455 | 11775 ft | 323 kts | 333° |
| 2026-04-30 13:34 | 60.26924 | 10.49838 | 13779 ft | 340 kts | 338° |
| 2026-04-30 13:35 | 60.29145 | 10.48161 | 14488 ft | 344 kts | 338° |
| 2026-04-30 13:35 | 60.33627 | 10.44801 | 15900 ft | 351 kts | 338° |
| 2026-04-30 13:36 | 60.38213 | 10.41299 | 17285 ft | 358 kts | 338° |
| 2026-04-30 13:36 | 60.40535 | 10.39506 | 17960 ft | 361 kts | 338° |
| 2026-04-30 13:36 | 60.45232 | 10.35860 | 19304 ft | 365 kts | 338° |
| 2026-04-30 13:37 | 60.47575 | 10.33924 | 19950 ft | 367 kts | 334° |
| 2026-04-30 13:37 | 60.52123 | 10.29083 | 21162 ft | 372 kts | 328° |
| 2026-04-30 13:38 | 60.56593 | 10.23736 | 22342 ft | 377 kts | 328° |
| 2026-04-30 13:38 | 60.58852 | 10.21009 | 22947 ft | 379 kts | 328° |
| 2026-04-30 13:38 | 60.63397 | 10.15552 | 24022 ft | 385 kts | 328° |
| 2026-04-30 13:39 | 60.68052 | 10.09986 | 25030 ft | 392 kts | 328° |
| 2026-04-30 13:39 | 60.72807 | 10.04305 | 26000 ft | 398 kts | 328° |
| 2026-04-30 13:40 | 60.75195 | 10.01446 | 26465 ft | 400 kts | 328° |
| 2026-04-30 13:40 | 60.77568 | 9.98480 | 26875 ft | 403 kts | 325° |
| 2026-04-30 13:40 | 60.79798 | 9.95030 | 27359 ft | 404 kts | 317° |
| 2026-04-30 13:40 | 60.81709 | 9.90890 | 27788 ft | 406 kts | 308° |
| 2026-04-30 13:41 | 60.83263 | 9.86022 | 28206 ft | 408 kts | 299° |
| 2026-04-30 13:41 | 60.84481 | 9.80793 | 28654 ft | 410 kts | 294° |
| 2026-04-30 13:41 | 60.85592 | 9.75436 | 29030 ft | 413 kts | 294° |
| 2026-04-30 13:41 | 60.86742 | 9.69995 | 29432 ft | 416 kts | 294° |
| 2026-04-30 13:42 | 60.87900 | 9.64589 | 29839 ft | 417 kts | 295° |
| 2026-04-30 13:42 | 60.89074 | 9.59122 | 30172 ft | 421 kts | 295° |
| 2026-04-30 13:42 | 60.91491 | 9.47829 | 31008 ft | 423 kts | 295° |
| 2026-04-30 13:43 | 60.92669 | 9.42290 | 31594 ft | 420 kts | 295° |
| 2026-04-30 13:43 | 60.93856 | 9.36687 | 32069 ft | 419 kts | 294° |
| 2026-04-30 13:43 | 60.95031 | 9.31117 | 32496 ft | 419 kts | 294° |
| 2026-04-30 13:43 | 60.96195 | 9.25586 | 32883 ft | 419 kts | 293° |
| 2026-04-30 13:44 | 60.97372 | 9.19974 | 33314 ft | 418 kts | 293° |
| 2026-04-30 13:44 | 60.98523 | 9.14464 | 33731 ft | 417 kts | 293° |
| 2026-04-30 13:44 | 60.99664 | 9.08986 | 34133 ft | 416 kts | 293° |
| 2026-04-30 13:44 | 61.00805 | 9.03487 | 34544 ft | 415 kts | 293° |
| 2026-04-30 13:45 | 61.03083 | 8.92470 | 35251 ft | 413 kts | 293° |
| 2026-04-30 13:45 | 61.04223 | 8.86940 | 35513 ft | 414 kts | 293° |
| 2026-04-30 13:45 | 61.05358 | 8.81413 | 35779 ft | 414 kts | 293° |
| 2026-04-30 13:46 | 61.06494 | 8.75873 | 36004 ft | 416 kts | 293° |
| 2026-04-30 13:46 | 61.07614 | 8.70395 | 36248 ft | 416 kts | 293° |
| 2026-04-30 13:46 | 61.08741 | 8.64865 | 36330 ft | 418 kts | 293° |
| 2026-04-30 13:47 | 61.10970 | 8.53887 | 36353 ft | 415 kts | 293° |
| 2026-04-30 13:47 | 61.13208 | 8.42806 | 36361 ft | 415 kts | 292° |
| 2026-04-30 13:48 | 61.15403 | 8.31884 | 36357 ft | 413 kts | 292° |
| 2026-04-30 13:48 | 61.17606 | 8.20855 | 36354 ft | 414 kts | 292° |
| 2026-04-30 13:49 | 61.19787 | 8.09875 | 36358 ft | 414 kts | 292° |
| 2026-04-30 13:49 | 61.21966 | 7.98851 | 36364 ft | 413 kts | 291° |
| 2026-04-30 13:50 | 61.24136 | 7.87810 | 36363 ft | 414 kts | 291° |
| 2026-04-30 13:50 | 61.27376 | 7.71201 | 36360 ft | 414 kts | 291° |
| 2026-04-30 13:51 | 61.29526 | 7.60104 | 36370 ft | 413 kts | 291° |
| 2026-04-30 13:51 | 61.31658 | 7.49044 | 36367 ft | 415 kts | 291° |
| 2026-04-30 13:52 | 61.33789 | 7.37924 | 36368 ft | 413 kts | 291° |
| 2026-04-30 13:52 | 61.35896 | 7.26868 | 36374 ft | 411 kts | 290° |
| 2026-04-30 13:53 | 61.37997 | 7.15773 | 36376 ft | 411 kts | 290° |
| 2026-04-30 13:53 | 61.40086 | 7.04688 | 36367 ft | 412 kts | 290° |
| 2026-04-30 13:54 | 61.42174 | 6.93546 | 36365 ft | 412 kts | 290° |
| 2026-04-30 13:54 | 61.44250 | 6.82400 | 36358 ft | 412 kts | 290° |
| 2026-04-30 13:55 | 61.46345 | 6.71094 | 36351 ft | 412 kts | 290° |
| 2026-04-30 13:55 | 61.48394 | 6.59971 | 36329 ft | 411 kts | 289° |
| 2026-04-30 13:56 | 61.50445 | 6.48780 | 36337 ft | 411 kts | 289° |
| 2026-04-30 13:56 | 61.52481 | 6.37595 | 36328 ft | 411 kts | 289° |
| 2026-04-30 13:57 | 61.54518 | 6.26333 | 36346 ft | 411 kts | 288° |
| 2026-04-30 13:57 | 61.56518 | 6.15221 | 36357 ft | 411 kts | 288° |
| 2026-04-30 13:58 | 61.59531 | 5.98354 | 36346 ft | 409 kts | 288° |
| 2026-04-30 13:59 | 61.61496 | 5.87281 | 36359 ft | 409 kts | 288° |
| 2026-04-30 13:59 | 61.63476 | 5.76035 | 36351 ft | 410 kts | 288° |
| 2026-04-30 14:00 | 61.65437 | 5.64853 | 36353 ft | 408 kts | 288° |
| 2026-04-30 14:00 | 61.68360 | 5.48056 | 36355 ft | 408 kts | 288° |
| 2026-04-30 14:01 | 61.70298 | 5.36839 | 36362 ft | 409 kts | 288° |
| 2026-04-30 14:01 | 61.72224 | 5.25605 | 36363 ft | 408 kts | 287° |
| 2026-04-30 14:02 | 61.74150 | 5.14315 | 36375 ft | 408 kts | 287° |
| 2026-04-30 14:02 | 61.76048 | 5.03129 | 36378 ft | 406 kts | 287° |
| 2026-04-30 14:03 | 61.77925 | 4.92000 | 36378 ft | 406 kts | 286° |
| 2026-04-30 14:03 | 61.79812 | 4.80742 | 36378 ft | 406 kts | 286° |
| 2026-04-30 14:04 | 61.81679 | 4.69531 | 36379 ft | 406 kts | 286° |
| 2026-04-30 14:04 | 61.83538 | 4.58298 | 36370 ft | 406 kts | 286° |
| 2026-04-30 14:05 | 61.84461 | 4.52699 | 36236 ft | 403 kts | 286° |
| 2026-04-30 14:05 | 61.85379 | 4.47118 | 36359 ft | 404 kts | 286° |
| 2026-04-30 14:05 | 61.87238 | 4.35733 | 36367 ft | 409 kts | 286° |
| 2026-04-30 14:06 | 61.89994 | 4.18748 | 36365 ft | 406 kts | 285° |
| 2026-04-30 14:07 | 61.92709 | 4.01870 | 36362 ft | 405 kts | 285° |
| 2026-04-30 14:08 | 61.95409 | 3.84916 | 36359 ft | 404 kts | 284° |
| 2026-04-30 14:08 | 61.98076 | 3.68003 | 36345 ft | 405 kts | 284° |
| 2026-04-30 14:09 | 61.99849 | 3.56668 | 36343 ft | 404 kts | 284° |
| 2026-04-30 14:10 | 62.02487 | 3.39661 | 36331 ft | 404 kts | 284° |
| 2026-04-30 14:10 | 62.04224 | 3.28388 | 36329 ft | 404 kts | 283° |
| 2026-04-30 14:11 | 62.05963 | 3.17024 | 36322 ft | 403 kts | 283° |
| 2026-04-30 14:11 | 62.07680 | 3.05724 | 36313 ft | 402 kts | 283° |
| 2026-04-30 14:12 | 62.09386 | 2.94428 | 36314 ft | 401 kts | 283° |
| 2026-04-30 14:12 | 62.11088 | 2.83080 | 36311 ft | 402 kts | 283° |
| 2026-04-30 14:13 | 62.12783 | 2.71711 | 36306 ft | 402 kts | 283° |
| 2026-04-30 14:13 | 62.14461 | 2.60378 | 36302 ft | 402 kts | 283° |
| 2026-04-30 14:14 | 62.16121 | 2.49093 | 36300 ft | 401 kts | 282° |
| 2026-04-30 14:14 | 62.17775 | 2.37773 | 36298 ft | 401 kts | 282° |
| 2026-04-30 14:15 | 62.19438 | 2.26306 | 36296 ft | 400 kts | 282° |
| 2026-04-30 14:15 | 62.21066 | 2.15026 | 36287 ft | 400 kts | 281° |
| 2026-04-30 14:16 | 62.22697 | 2.03637 | 36286 ft | 400 kts | 281° |
| 2026-04-30 14:16 | 62.24302 | 1.92345 | 36283 ft | 398 kts | 281° |
| 2026-04-30 14:17 | 62.25907 | 1.80971 | 36281 ft | 400 kts | 281° |
| 2026-04-30 14:17 | 62.27502 | 1.69595 | 36287 ft | 399 kts | 281° |
| 2026-04-30 14:18 | 62.29095 | 1.58160 | 36277 ft | 399 kts | 281° |
| 2026-04-30 14:18 | 62.31468 | 1.40980 | 36263 ft | 400 kts | 281° |
| 2026-04-30 14:19 | 62.33808 | 1.23860 | 36270 ft | 399 kts | 280° |
| 2026-04-30 14:20 | 62.35354 | 1.12457 | 36264 ft | 399 kts | 280° |
| 2026-04-30 14:20 | 62.37651 | 0.95338 | 36256 ft | 399 kts | 280° |
| 2026-04-30 14:21 | 62.39185 | 0.83811 | 36250 ft | 398 kts | 280° |
| 2026-04-30 14:22 | 62.41456 | 0.66582 | 36241 ft | 400 kts | 280° |
| 2026-04-30 14:22 | 62.43711 | 0.49304 | 36236 ft | 399 kts | 280° |
| 2026-04-30 14:23 | 62.46669 | 0.26338 | 36225 ft | 399 kts | 279° |
| 2026-04-30 14:24 | 62.48869 | 0.09027 | 36219 ft | 400 kts | 279° |
| 2026-04-30 14:25 | 62.51929 | -0.13992 | 36215 ft | 401 kts | 281° |
| 2026-04-30 14:26 | 62.54410 | -0.31218 | 36212 ft | 400 kts | 281° |
| 2026-04-30 14:27 | 62.56838 | -0.48465 | 36211 ft | 402 kts | 280° |
| 2026-04-30 14:27 | 62.58433 | -0.59976 | 36209 ft | 400 kts | 280° |
| 2026-04-30 14:28 | 62.60804 | -0.77259 | 36203 ft | 398 kts | 279° |
| 2026-04-30 14:28 | 62.62363 | -0.88734 | 36202 ft | 399 kts | 279° |
| 2026-04-30 14:29 | 62.65453 | -1.11743 | 36206 ft | 400 kts | 279° |
| 2026-04-30 14:31 | 62.69263 | -1.40543 | 36185 ft | 398 kts | 279° |
| 2026-04-30 14:31 | 62.71521 | -1.57864 | 36183 ft | 398 kts | 279° |
| 2026-04-30 14:32 | 62.73752 | -1.75157 | 36179 ft | 395 kts | 278° |
| 2026-04-30 14:33 | 62.75220 | -1.86660 | 36175 ft | 395 kts | 278° |
| 2026-04-30 14:33 | 62.77416 | -2.04023 | 36170 ft | 396 kts | 278° |
| 2026-04-30 14:34 | 62.78865 | -2.15566 | 36162 ft | 397 kts | 277° |
| 2026-04-30 14:34 | 62.80304 | -2.27125 | 36161 ft | 395 kts | 277° |
| 2026-04-30 14:35 | 62.82445 | -2.44503 | 36150 ft | 395 kts | 277° |
| 2026-04-30 14:36 | 62.83857 | -2.56059 | 36150 ft | 397 kts | 277° |
| 2026-04-30 14:36 | 62.85272 | -2.67751 | 36148 ft | 397 kts | 276° |
| 2026-04-30 14:37 | 62.86664 | -2.79310 | 36142 ft | 393 kts | 277° |
| 2026-04-30 14:37 | 62.88051 | -2.90927 | 36136 ft | 396 kts | 276° |
| 2026-04-30 14:38 | 62.89423 | -3.02532 | 36137 ft | 396 kts | 276° |
| 2026-04-30 14:38 | 62.90787 | -3.14163 | 36134 ft | 396 kts | 276° |
| 2026-04-30 14:39 | 62.92147 | -3.25831 | 36130 ft | 396 kts | 276° |
| 2026-04-30 14:39 | 62.93489 | -3.37439 | 36128 ft | 396 kts | 276° |
| 2026-04-30 14:40 | 62.95493 | -3.54962 | 36122 ft | 394 kts | 276° |
| 2026-04-30 14:40 | 62.96823 | -3.66715 | 36117 ft | 396 kts | 275° |
| 2026-04-30 14:41 | 62.98137 | -3.78407 | 36114 ft | 394 kts | 275° |
| 2026-04-30 14:41 | 62.99439 | -3.90070 | 36115 ft | 394 kts | 275° |
| 2026-04-30 14:42 | 63.00727 | -4.01731 | 36112 ft | 393 kts | 275° |
| 2026-04-30 14:42 | 63.01998 | -4.13335 | 36097 ft | 391 kts | 275° |
| 2026-04-30 14:43 | 63.03257 | -4.24918 | 36090 ft | 391 kts | 275° |
| 2026-04-30 14:43 | 63.04512 | -4.36579 | 36097 ft | 393 kts | 275° |
| 2026-04-30 14:44 | 63.05755 | -4.48231 | 36093 ft | 391 kts | 275° |
| 2026-04-30 14:44 | 63.06991 | -4.59893 | 36081 ft | 393 kts | 275° |
| 2026-04-30 14:45 | 63.08222 | -4.71615 | 36077 ft | 391 kts | 274° |
| 2026-04-30 14:45 | 63.09434 | -4.83241 | 36086 ft | 391 kts | 274° |
| 2026-04-30 14:46 | 63.10639 | -4.94944 | 36078 ft | 390 kts | 274° |
| 2026-04-30 14:46 | 63.11829 | -5.06576 | 36084 ft | 390 kts | 274° |
| 2026-04-30 14:47 | 63.13013 | -5.18266 | 36069 ft | 392 kts | 274° |
| 2026-04-30 14:47 | 63.14186 | -5.29922 | 36086 ft | 391 kts | 274° |
| 2026-04-30 14:48 | 63.15352 | -5.41650 | 36061 ft | 392 kts | 274° |
| 2026-04-30 14:48 | 63.16503 | -5.53313 | 36064 ft | 392 kts | 274° |
| 2026-04-30 14:49 | 63.17660 | -5.65170 | 36058 ft | 393 kts | 273° |
| 2026-04-30 14:49 | 63.18798 | -5.76905 | 36049 ft | 392 kts | 273° |
| 2026-04-30 14:50 | 63.20493 | -5.94580 | 36060 ft | 392 kts | 273° |
| 2026-04-30 14:51 | 63.22168 | -6.12334 | 36057 ft | 393 kts | 273° |
| 2026-04-30 14:52 | 63.23813 | -6.30041 | 36067 ft | 393 kts | 274° |
| 2026-04-30 14:52 | 63.25443 | -6.47811 | 36024 ft | 393 kts | 274° |
| 2026-04-30 14:53 | 63.27045 | -6.65573 | 36059 ft | 395 kts | 273° |
| 2026-04-30 14:54 | 63.29155 | -6.89303 | 36052 ft | 393 kts | 273° |
| 2026-04-30 14:55 | 63.30711 | -7.07165 | 36055 ft | 395 kts | 273° |
| 2026-04-30 14:56 | 63.32760 | -7.31067 | 36035 ft | 396 kts | 273° |
| 2026-04-30 14:57 | 63.34268 | -7.49020 | 36022 ft | 395 kts | 273° |
| 2026-04-30 14:58 | 63.36245 | -7.72973 | 36018 ft | 395 kts | 272° |
| 2026-04-30 14:58 | 63.37703 | -7.90968 | 36018 ft | 393 kts | 272° |
| 2026-04-30 15:00 | 63.40073 | -8.20923 | 36017 ft | 393 kts | 272° |
| 2026-04-30 15:01 | 63.41929 | -8.44983 | 36021 ft | 394 kts | 272° |
| 2026-04-30 15:01 | 63.43298 | -8.63102 | 36030 ft | 396 kts | 272° |
| 2026-04-30 15:02 | 63.44196 | -8.75169 | 36023 ft | 395 kts | 271° |
| 2026-04-30 15:03 | 63.46392 | -9.05251 | 36023 ft | 394 kts | 271° |
| 2026-04-30 15:04 | 63.48522 | -9.35358 | 36027 ft | 394 kts | 271° |
| 2026-04-30 15:06 | 63.50594 | -9.65577 | 36015 ft | 394 kts | 270° |
| 2026-04-30 15:06 | 63.51400 | -9.77590 | 36228 ft | 391 kts | 270° |
| 2026-04-30 15:07 | 63.52199 | -9.89605 | 36018 ft | 384 kts | 269° |
| 2026-04-30 15:08 | 63.53739 | -10.13436 | 35992 ft | 388 kts | 270° |
| 2026-04-30 15:09 | 63.55619 | -10.43328 | 35991 ft | 390 kts | 270° |
| 2026-04-30 15:10 | 63.57084 | -10.67371 | 35988 ft | 392 kts | 269° |
| 2026-04-30 15:11 | 63.59217 | -11.03633 | 36004 ft | 392 kts | 269° |
| 2026-04-30 15:13 | 63.60918 | -11.33939 | 35979 ft | 394 kts | 270° |
| 2026-04-30 15:14 | 63.63205 | -11.76411 | 35963 ft | 392 kts | 270° |
| 2026-04-30 15:17 | 63.65976 | -12.31482 | 35963 ft | 394 kts | 270° |
| 2026-04-30 15:19 | 63.68266 | -12.80598 | 35952 ft | 396 kts | 270° |